createdAt,value
2023-06-03T00:00:27.122Z,99330.66
2023-06-03T00:02:55.656Z,99323.31
2023-06-03T00:05:23.973Z,99320.16
2023-06-03T00:07:52.355Z,99318.22
2023-06-03T00:10:20.567Z,99325.72
2023-06-03T00:12:50.554Z,99320.66
2023-06-03T00:15:20.297Z,99326.53
2023-06-03T00:17:48.550Z,99319.41
2023-06-03T00:20:17.682Z,99318.56
2023-06-03T00:22:46.470Z,99327.16
2023-06-03T00:25:14.762Z,99318.28
2023-06-03T00:27:44.828Z,99322.66
2023-06-03T00:30:14.684Z,99318.50
2023-06-03T00:32:43.387Z,99321.97
2023-06-03T00:35:14.085Z,99322.47
2023-06-03T00:37:42.503Z,99325.41
2023-06-03T00:40:12.109Z,99311.81
2023-06-03T00:42:40.326Z,99319.66
2023-06-03T00:45:09.512Z,99313.69
2023-06-03T00:47:40.324Z,99319.06
2023-06-03T00:50:14.738Z,99322.63
2023-06-03T00:52:43.954Z,99307.69
2023-06-03T00:55:12.578Z,99318.66
2023-06-03T00:57:40.778Z,99318.34
2023-06-03T01:00:10.331Z,99315.69
2023-06-03T01:02:45.297Z,99321.41
2023-06-03T01:05:14.870Z,99326.25
2023-06-03T01:07:52.834Z,99319.25
2023-06-03T01:10:26.153Z,99318.75
2023-06-03T01:13:02.821Z,99322.53
2023-06-03T01:15:33.397Z,99316.75
2023-06-03T01:18:08.243Z,99314.56
2023-06-03T01:20:38.028Z,99317.09
2023-06-03T01:23:25.143Z,99312.63
2023-06-03T01:25:58.040Z,99317.09
2023-06-03T01:28:26.846Z,99311.44
2023-06-03T01:30:56.597Z,99313.75
2023-06-03T01:33:26.399Z,99301.88
2023-06-03T01:35:56.846Z,99312.44
2023-06-03T01:38:27.639Z,99311.66
2023-06-03T01:40:56.909Z,99309.59
2023-06-03T01:43:25.413Z,99307.53
2023-06-03T01:45:53.536Z,99305.66
2023-06-03T01:48:22.256Z,99306.88
2023-06-03T01:50:51.055Z,99308.00
2023-06-03T01:53:19.442Z,99307.00
2023-06-03T01:55:49.660Z,99312.34
2023-06-03T01:58:18.141Z,99300.78
2023-06-03T02:00:46.551Z,99306.50
2023-06-03T02:03:14.924Z,99304.25
2023-06-03T02:05:43.621Z,99305.97
2023-06-03T02:08:14.529Z,99309.84
2023-06-03T02:10:42.674Z,99301.81
2023-06-03T02:13:14.724Z,99311.41
2023-06-03T02:15:43.358Z,99311.63
2023-06-03T02:18:12.489Z,99304.09
2023-06-03T02:20:41.098Z,99307.09
2023-06-03T02:23:09.216Z,99303.03
2023-06-03T02:25:37.994Z,99297.41
2023-06-03T02:28:07.590Z,99297.06
2023-06-03T02:30:37.746Z,99297.59
2023-06-03T02:33:05.963Z,99305.59
2023-06-03T02:35:35.603Z,99297.69
2023-06-03T02:38:04.092Z,99299.00
2023-06-03T02:40:32.425Z,99300.50
2023-06-03T02:43:00.640Z,99306.34
2023-06-03T02:45:28.988Z,99315.50
2023-06-03T02:47:59.239Z,99307.00
2023-06-03T02:50:27.430Z,99309.03
2023-06-03T02:52:55.947Z,99307.09
2023-06-03T02:55:24.913Z,99310.16
2023-06-03T02:57:53.142Z,99307.50
2023-06-03T03:00:21.703Z,99317.91
2023-06-03T03:02:50.350Z,99318.38
2023-06-03T03:05:19.985Z,99314.53
2023-06-03T03:07:48.922Z,99319.66
2023-06-03T03:10:17.587Z,99326.88
2023-06-03T03:12:46.052Z,99330.56
2023-06-03T03:15:14.293Z,99334.09
2023-06-03T03:17:42.700Z,99325.81
2023-06-03T03:20:12.135Z,99328.66
2023-06-03T03:22:45.566Z,99331.97
2023-06-03T03:25:14.116Z,99331.97
2023-06-03T03:27:42.859Z,99339.94
2023-06-03T03:30:12.079Z,99332.81
2023-06-03T03:32:40.426Z,99336.09
2023-06-03T03:35:14.695Z,99339.72
2023-06-03T03:37:45.533Z,99343.22
2023-06-03T03:40:20.253Z,99341.38
2023-06-03T03:42:52.482Z,99343.19
2023-06-03T03:45:22.838Z,99350.97
2023-06-03T03:47:52.164Z,99350.06
2023-06-03T03:50:42.225Z,99350.34
2023-06-03T03:53:15.247Z,99346.63
2023-06-03T03:55:45.919Z,99346.84
2023-06-03T03:58:41.611Z,99348.72
2023-06-03T04:01:13.974Z,99354.69
2023-06-03T04:03:43.238Z,99356.28
2023-06-03T04:06:12.453Z,99364.78
2023-06-03T04:08:47.535Z,99363.06
2023-06-03T04:11:21.969Z,99364.88
2023-06-03T04:13:51.619Z,99357.31
2023-06-03T04:16:49.618Z,99369.78
2023-06-03T04:19:21.513Z,99362.63
2023-06-03T04:21:49.974Z,99354.81
2023-06-03T04:24:19.779Z,99368.84
2023-06-03T04:26:48.749Z,99359.56
2023-06-03T04:29:16.878Z,99358.84
2023-06-03T04:31:45.323Z,99358.09
2023-06-03T04:34:13.825Z,99359.91
2023-06-03T04:36:43.354Z,99363.13
2023-06-03T04:39:12.428Z,99369.06
2023-06-03T04:41:42.488Z,99367.34
2023-06-03T04:44:12.681Z,99370.75
2023-06-03T04:46:41.945Z,99364.28
2023-06-03T04:49:10.554Z,99368.72
2023-06-03T04:51:41.956Z,99374.38
2023-06-03T04:54:10.656Z,99368.94
2023-06-03T04:56:39.117Z,99368.63
2023-06-03T04:59:09.247Z,99366.94
2023-06-03T05:01:39.002Z,99367.03
2023-06-03T05:04:09.956Z,99363.09
2023-06-03T05:06:40.700Z,99367.69
2023-06-03T05:09:11.339Z,99365.78
2023-06-03T05:11:39.613Z,99353.25
2023-06-03T05:14:10.470Z,99361.41
2023-06-03T05:16:38.696Z,99364.69
2023-06-03T05:19:07.174Z,99363.22
2023-06-03T05:21:37.013Z,99368.53
2023-06-03T05:24:07.085Z,99365.31
2023-06-03T05:26:35.488Z,99371.22
2023-06-03T05:29:04.203Z,99367.53
2023-06-03T05:31:34.555Z,99363.84
2023-06-03T05:34:02.764Z,99365.66
2023-06-03T05:36:31.263Z,99361.38
2023-06-03T05:38:59.738Z,99364.97
2023-06-03T05:41:27.874Z,99372.69
2023-06-03T05:43:57.397Z,99366.13
2023-06-03T05:46:26.313Z,99369.66
2023-06-03T05:48:56.174Z,99365.72
2023-06-03T05:51:25.544Z,99369.34
2023-06-03T05:53:53.699Z,99376.72
2023-06-03T05:56:22.380Z,99370.34
2023-06-03T05:58:50.767Z,99361.59
2023-06-03T06:01:19.279Z,99368.91
2023-06-03T06:03:47.650Z,99379.06
2023-06-03T06:06:17.847Z,99372.13
2023-06-03T06:08:48.314Z,99379.16
2023-06-03T06:11:16.785Z,99370.63
2023-06-03T06:13:45.189Z,99365.78
2023-06-03T06:16:13.653Z,99367.22
2023-06-03T06:18:42.189Z,99371.19
2023-06-03T06:21:11.243Z,99369.13
2023-06-03T06:23:41.058Z,99369.59
2023-06-03T06:26:09.443Z,99368.81
2023-06-03T06:28:37.786Z,99368.13
2023-06-03T06:31:08.493Z,99363.88
2023-06-03T06:33:37.922Z,99367.66
2023-06-03T06:36:13.848Z,99372.47
2023-06-03T06:38:43.608Z,99366.78
2023-06-03T06:41:14.548Z,99363.41
2023-06-03T06:43:42.957Z,99364.25
2023-06-03T06:46:12.337Z,99372.00
2023-06-03T06:48:41.958Z,99362.78
2023-06-03T06:51:10.018Z,99367.38
2023-06-03T06:53:39.174Z,99363.63
2023-06-03T06:56:10.678Z,99367.00
2023-06-03T06:58:43.408Z,99372.69
2023-06-03T07:01:12.474Z,99371.72
2023-06-03T07:03:40.792Z,99366.44
2023-06-03T07:06:09.431Z,99365.97
2023-06-03T07:08:38.073Z,99358.19
2023-06-03T07:11:09.273Z,99363.00
2023-06-03T07:13:38.069Z,99361.91
2023-06-03T07:16:07.008Z,99369.16
2023-06-03T07:18:35.718Z,99362.00
2023-06-03T07:21:04.326Z,99359.84
2023-06-03T07:23:33.057Z,99365.59
2023-06-03T07:26:01.434Z,99368.97
2023-06-03T07:28:34.346Z,99375.09
2023-06-03T07:31:08.672Z,99373.22
2023-06-03T07:33:42.934Z,99366.78
2023-06-03T07:36:11.345Z,99365.69
2023-06-03T07:39:00.675Z,99355.78
2023-06-03T07:41:41.328Z,99359.50
2023-06-03T07:44:12.511Z,99369.97
2023-06-03T07:46:43.071Z,99363.91
2023-06-03T07:49:13.426Z,99366.47
2023-06-03T07:51:43.697Z,99364.16
2023-06-03T07:54:12.681Z,99364.31
2023-06-03T07:56:41.493Z,99361.72
2023-06-03T07:59:13.475Z,99368.13
2023-06-03T08:01:44.254Z,99371.66
2023-06-03T08:04:31.647Z,99371.59
2023-06-03T08:07:01.560Z,99360.50
2023-06-03T08:09:31.720Z,99368.16
2023-06-03T08:12:00.820Z,99363.94
2023-06-03T08:14:32.434Z,99366.66
2023-06-03T08:17:05.347Z,99365.25
2023-06-03T08:19:35.554Z,99365.81
2023-06-03T08:22:03.826Z,99368.22
2023-06-03T08:24:32.286Z,99364.78
2023-06-03T08:27:00.674Z,99357.75
2023-06-03T08:29:30.728Z,99362.97
2023-06-03T08:31:58.960Z,99365.00
2023-06-03T08:34:27.260Z,99359.31
2023-06-03T08:36:55.603Z,99357.34
2023-06-03T08:39:24.030Z,99361.66
2023-06-03T08:41:56.878Z,99363.47
2023-06-03T08:44:37.033Z,99351.28
2023-06-03T08:47:13.600Z,99352.72
2023-06-03T08:49:50.291Z,99353.38
2023-06-03T08:52:21.727Z,99359.84
2023-06-03T08:54:50.626Z,99356.16
2023-06-03T08:57:20.938Z,99361.78
2023-06-03T08:59:56.359Z,99360.38
2023-06-03T09:02:25.688Z,99352.06
2023-06-03T09:04:55.833Z,99358.53
2023-06-03T09:07:26.364Z,99353.59
2023-06-03T09:09:57.999Z,99353.69
2023-06-03T09:12:28.856Z,99353.59
2023-06-03T09:15:02.281Z,99357.81
2023-06-03T09:17:32.198Z,99348.47
2023-06-03T09:20:03.554Z,99344.75
2023-06-03T09:22:32.643Z,99346.63
2023-06-03T09:25:01.074Z,99352.53
2023-06-03T09:27:29.662Z,99354.84
2023-06-03T09:30:00.120Z,99351.16
2023-06-03T09:32:28.649Z,99349.41
2023-06-03T09:34:57.910Z,99351.84
2023-06-03T09:37:30.165Z,99359.31
2023-06-03T09:40:01.963Z,99351.28
2023-06-03T09:42:43.391Z,99355.56
2023-06-03T09:45:24.945Z,99351.22
2023-06-03T09:47:53.734Z,99347.59
2023-06-03T09:50:23.517Z,99353.38
2023-06-03T09:52:52.385Z,99341.94
2023-06-03T09:55:23.982Z,99343.78
2023-06-03T09:58:06.633Z,99348.47
2023-06-03T10:00:49.923Z,99346.38
2023-06-03T10:03:20.284Z,99353.19
2023-06-03T10:05:48.607Z,99350.56
2023-06-03T10:08:16.884Z,99354.97
2023-06-03T10:10:57.183Z,99350.13
2023-06-03T10:13:26.113Z,99352.53
2023-06-03T10:15:55.874Z,99346.25
2023-06-03T10:18:39.060Z,99355.38
2023-06-03T10:21:11.360Z,99354.22
2023-06-03T10:23:41.478Z,99347.75
2023-06-03T10:26:10.988Z,99343.53
2023-06-03T10:28:40.078Z,99347.41
2023-06-03T10:31:10.850Z,99347.59
2023-06-03T10:33:40.318Z,99329.03
2023-06-03T10:36:10.659Z,99334.19
2023-06-03T10:38:41.276Z,99334.22
2023-06-03T10:41:13.913Z,99334.50
2023-06-03T10:43:44.754Z,99332.25
2023-06-03T10:46:15.639Z,99328.38
2023-06-03T10:48:46.866Z,99322.69
2023-06-03T10:51:42.601Z,99330.56
2023-06-03T10:54:24.808Z,99328.81
2023-06-03T10:56:58.167Z,99331.50
2023-06-03T10:59:29.848Z,99333.50
2023-06-03T11:02:02.013Z,99335.88
2023-06-03T11:04:31.445Z,99325.47
2023-06-03T11:07:00.073Z,99321.91
2023-06-03T11:09:38.844Z,99319.38
2023-06-03T11:12:14.840Z,99317.69
2023-06-03T11:14:56.651Z,99324.03
2023-06-03T11:17:27.626Z,99326.28
2023-06-03T11:19:59.085Z,99325.41
2023-06-03T11:22:48.878Z,99323.69
2023-06-03T11:25:41.121Z,99320.47
2023-06-03T11:28:37.160Z,99321.78
2023-06-03T11:31:10.217Z,99322.28
2023-06-03T11:33:40.370Z,99317.06
2023-06-03T11:36:57.393Z,99320.53
2023-06-03T11:39:26.249Z,99317.97
2023-06-03T11:42:11.872Z,99320.06
2023-06-03T11:44:44.184Z,99314.25
2023-06-03T11:47:12.450Z,99307.69
2023-06-03T11:49:42.391Z,99312.88
2023-06-03T11:52:12.051Z,99313.09
2023-06-03T11:54:46.337Z,99309.69
2023-06-03T11:57:14.946Z,99311.88
2023-06-03T11:59:44.651Z,99315.28
2023-06-03T12:02:14.341Z,99317.94
2023-06-03T12:04:47.939Z,99306.38
2023-06-03T12:07:17.455Z,99295.97
2023-06-03T12:09:46.787Z,99297.63
2023-06-03T12:12:16.190Z,99297.28
2023-06-03T12:14:46.204Z,99299.22
2023-06-03T12:17:16.204Z,99304.13
2023-06-03T12:19:48.011Z,99289.19
2023-06-03T12:22:23.419Z,99290.53
2023-06-03T12:24:52.432Z,99294.63
2023-06-03T12:27:23.463Z,99299.41
2023-06-03T12:29:54.916Z,99295.59
2023-06-03T12:32:26.902Z,99293.22
2023-06-03T12:34:57.242Z,99291.56
2023-06-03T12:37:29.721Z,99282.44
2023-06-03T12:39:59.497Z,99284.13
2023-06-03T12:42:46.135Z,99279.88
2023-06-03T12:45:24.483Z,99280.00
2023-06-03T12:47:53.064Z,99268.75
2023-06-03T12:50:24.381Z,99269.91
2023-06-03T12:52:52.772Z,99275.84
2023-06-03T12:55:21.299Z,99261.97
2023-06-03T12:57:50.630Z,99257.44
2023-06-03T13:00:21.777Z,99268.75
2023-06-03T13:02:52.219Z,99264.06
2023-06-03T13:05:22.441Z,99258.81
2023-06-03T13:07:52.050Z,99258.84
2023-06-03T13:10:20.782Z,99263.34
2023-06-03T13:12:50.366Z,99260.19
2023-06-03T13:15:19.456Z,99252.19
2023-06-03T13:17:47.879Z,99248.03
2023-06-03T13:20:17.474Z,99252.09
2023-06-03T13:22:46.291Z,99253.19
2023-06-03T13:25:16.405Z,99247.78
2023-06-03T13:27:46.108Z,99245.03
2023-06-03T13:30:15.793Z,99251.47
2023-06-03T13:32:44.519Z,99247.56
2023-06-03T13:35:12.875Z,99243.78
2023-06-03T13:37:41.491Z,99244.41
2023-06-03T13:40:11.275Z,99245.47
2023-06-03T13:42:42.921Z,99251.97
2023-06-03T13:45:12.088Z,99246.56
2023-06-03T13:47:41.139Z,99246.47
2023-06-03T13:50:10.717Z,99237.06
2023-06-03T13:52:39.000Z,99239.66
2023-06-03T13:55:08.393Z,99237.72
2023-06-03T13:57:36.550Z,99235.00
2023-06-03T14:00:08.207Z,99233.34
2023-06-03T14:02:36.903Z,99229.72
2023-06-03T14:05:05.601Z,99234.06
2023-06-03T14:07:33.837Z,99230.03
2023-06-03T14:10:03.037Z,99223.25
2023-06-03T14:12:31.367Z,99234.72
2023-06-03T14:14:59.912Z,99233.06
2023-06-03T14:17:31.321Z,99222.25
2023-06-03T14:19:59.458Z,99225.34
2023-06-03T14:22:30.294Z,99218.59
2023-06-03T14:24:58.483Z,99214.84
2023-06-03T14:27:26.591Z,99216.75
2023-06-03T14:29:55.172Z,99215.50
2023-06-03T14:32:23.442Z,99204.72
2023-06-03T14:34:53.302Z,99207.59
2023-06-03T14:37:21.770Z,99196.44
2023-06-03T14:39:50.935Z,99199.56
2023-06-03T14:42:19.667Z,99195.00
2023-06-03T14:45:00.055Z,99196.63
2023-06-03T14:47:29.032Z,99183.50
2023-06-03T14:49:58.726Z,99186.44
2023-06-03T14:52:28.090Z,99187.66
2023-06-03T14:54:56.709Z,99183.22
2023-06-03T14:57:24.974Z,99192.19
2023-06-03T14:59:53.100Z,99179.69
2023-06-03T15:02:24.774Z,99187.63
2023-06-03T15:04:53.239Z,99188.84
2023-06-03T15:07:23.364Z,99186.38
2023-06-03T15:09:51.654Z,99179.22
2023-06-03T15:12:19.953Z,99183.50
2023-06-03T15:14:48.383Z,99181.88
2023-06-03T15:17:17.094Z,99178.00
2023-06-03T15:19:47.512Z,99179.84
2023-06-03T15:22:15.975Z,99175.56
2023-06-03T15:24:45.797Z,99174.28
2023-06-03T15:27:14.245Z,99169.38
2023-06-03T15:29:42.578Z,99167.19
2023-06-03T15:32:10.810Z,99162.25
2023-06-03T15:34:39.067Z,99172.03
2023-06-03T15:37:07.430Z,99170.34
2023-06-03T15:39:36.185Z,99160.06
2023-06-03T15:42:07.620Z,99165.84
2023-06-03T15:44:35.818Z,99163.94
2023-06-03T15:47:05.149Z,99166.66
2023-06-03T15:49:34.833Z,99176.94
2023-06-03T15:52:02.922Z,99173.81
2023-06-03T15:54:31.307Z,99181.56
2023-06-03T15:56:59.414Z,99164.66
2023-06-03T15:59:29.112Z,99170.97
2023-06-03T16:01:57.299Z,99163.19
2023-06-03T16:04:26.849Z,99171.75
2023-06-03T16:06:56.746Z,99158.78
2023-06-03T16:09:25.467Z,99164.16
2023-06-03T16:11:54.199Z,99163.75
2023-06-03T16:14:22.455Z,99156.97
2023-06-03T16:16:52.495Z,99158.69
2023-06-03T16:19:21.466Z,99158.03
2023-06-03T16:21:50.364Z,99159.28
2023-06-03T16:24:19.160Z,99160.03
2023-06-03T16:26:47.523Z,99150.38
2023-06-03T16:29:16.019Z,99154.78
2023-06-03T16:31:44.570Z,99160.75
2023-06-03T16:34:14.583Z,99155.53
2023-06-03T16:36:42.852Z,99156.13
2023-06-03T16:39:11.392Z,99154.31
2023-06-03T16:41:39.901Z,99149.50
2023-06-03T16:44:08.117Z,99152.13
2023-06-03T16:46:36.362Z,99151.75
2023-06-03T16:49:05.002Z,99142.41
2023-06-03T16:51:34.959Z,99152.38
2023-06-03T16:54:03.379Z,99145.91
2023-06-03T16:56:32.355Z,99158.09
2023-06-03T16:59:00.646Z,99157.44
2023-06-03T17:01:29.129Z,99162.56
2023-06-03T17:03:59.630Z,99157.47
2023-06-03T17:06:27.766Z,99160.69
2023-06-03T17:08:59.322Z,99153.94
2023-06-03T17:11:28.735Z,99156.44
2023-06-03T17:13:59.908Z,99160.34
2023-06-03T17:16:29.727Z,99165.50
2023-06-03T17:18:58.193Z,99158.94
2023-06-03T17:21:26.530Z,99159.47
2023-06-03T17:23:57.616Z,99151.97
2023-06-03T17:26:26.737Z,99162.66
2023-06-03T17:28:55.173Z,99157.75
2023-06-03T17:31:24.409Z,99155.81
2023-06-03T17:33:54.335Z,99151.25
2023-06-03T17:36:22.735Z,99155.38
2023-06-03T17:38:51.211Z,99151.34
2023-06-03T17:41:21.564Z,99148.75
2023-06-03T17:43:50.171Z,99146.84
2023-06-03T17:46:18.920Z,99152.97
2023-06-03T17:48:47.660Z,99145.00
2023-06-03T17:51:15.749Z,99144.59
2023-06-03T17:53:43.926Z,99151.25
2023-06-03T17:56:12.609Z,99155.16
2023-06-03T17:58:42.710Z,99147.44
2023-06-03T18:01:11.103Z,99149.31
2023-06-03T18:03:39.612Z,99161.22
2023-06-03T18:06:08.504Z,99157.56
2023-06-03T18:08:37.392Z,99156.91
2023-06-03T18:11:06.078Z,99161.94
2023-06-03T18:13:34.142Z,99160.41
2023-06-03T18:16:04.396Z,99163.13
2023-06-03T18:18:34.175Z,99163.00
2023-06-03T18:21:02.641Z,99165.66
2023-06-03T18:23:31.191Z,99164.13
2023-06-03T18:26:00.931Z,99172.47
2023-06-03T18:28:29.076Z,99163.19
2023-06-03T18:30:58.750Z,99172.47
2023-06-03T18:33:30.289Z,99177.34
2023-06-03T18:35:58.959Z,99179.47
2023-06-03T18:38:27.167Z,99180.88
2023-06-03T18:40:55.561Z,99182.19
2023-06-03T18:43:23.952Z,99182.47
2023-06-03T18:45:52.750Z,99187.06
2023-06-03T18:48:21.026Z,99182.59
2023-06-03T18:50:50.908Z,99193.81
2023-06-03T18:53:21.098Z,99187.34
2023-06-03T18:55:49.998Z,99190.66
2023-06-03T18:58:18.222Z,99193.41
2023-06-03T19:00:46.614Z,99189.38
2023-06-03T19:03:26.871Z,99198.94
2023-06-03T19:05:58.041Z,99195.06
2023-06-03T19:08:26.284Z,99201.16
2023-06-03T19:10:54.759Z,99206.88
2023-06-03T19:13:23.191Z,99204.78
2023-06-03T19:15:53.257Z,99207.72
2023-06-03T19:18:22.055Z,99209.47
2023-06-03T19:20:51.288Z,99206.78
2023-06-03T19:23:22.432Z,99208.31
2023-06-03T19:25:52.026Z,99210.69
2023-06-03T19:28:20.414Z,99210.03
2023-06-03T19:30:49.987Z,99209.28
2023-06-03T19:33:18.391Z,99216.88
2023-06-03T19:35:47.397Z,99222.78
2023-06-03T19:38:16.274Z,99225.13
2023-06-03T19:40:46.561Z,99220.56
2023-06-03T19:43:15.367Z,99226.00
2023-06-03T19:45:43.758Z,99226.25
2023-06-03T19:48:12.592Z,99227.69
2023-06-03T19:50:41.935Z,99220.38
2023-06-03T19:53:10.786Z,99230.38
2023-06-03T19:55:38.917Z,99230.97
2023-06-03T19:58:08.758Z,99235.25
2023-06-03T20:00:37.280Z,99242.81
2023-06-03T20:03:09.447Z,99250.66
2023-06-03T20:05:37.913Z,99248.47
2023-06-03T20:08:06.446Z,99246.84
2023-06-03T20:10:34.783Z,99250.78
2023-06-03T20:13:02.901Z,99248.47
2023-06-03T20:15:32.580Z,99257.88
2023-06-03T20:18:01.247Z,99243.25
2023-06-03T20:20:33.184Z,99259.22
2023-06-03T20:23:04.278Z,99251.19
2023-06-03T20:25:32.847Z,99258.59
2023-06-03T20:28:04.846Z,99255.00
2023-06-03T20:30:36.063Z,99261.81
2023-06-03T20:33:04.630Z,99256.06
2023-06-03T20:35:34.148Z,99261.06
2023-06-03T20:38:02.410Z,99260.69
2023-06-03T20:40:31.016Z,99264.59
2023-06-03T20:42:59.541Z,99262.78
2023-06-03T20:45:28.080Z,99262.50
2023-06-03T20:47:57.968Z,99267.03
2023-06-03T20:50:27.043Z,99257.56
2023-06-03T20:52:55.493Z,99261.25
2023-06-03T20:55:26.736Z,99263.38
2023-06-03T20:57:55.110Z,99256.13
2023-06-03T21:00:23.565Z,99262.56
2023-06-03T21:02:52.214Z,99266.09
2023-06-03T21:05:22.111Z,99267.50
2023-06-03T21:07:51.382Z,99264.19
2023-06-03T21:10:19.858Z,99274.25
2023-06-03T21:12:48.345Z,99267.22
2023-06-03T21:15:16.928Z,99271.63
2023-06-03T21:17:48.386Z,99270.34
2023-06-03T21:20:16.882Z,99267.56
2023-06-03T21:22:47.202Z,99278.22
2023-06-03T21:25:16.472Z,99271.16
2023-06-03T21:27:44.969Z,99272.59
2023-06-03T21:30:15.059Z,99284.47
2023-06-03T21:32:45.099Z,99284.81
2023-06-03T21:35:13.828Z,99276.59
2023-06-03T21:37:42.269Z,99281.88
2023-06-03T21:40:15.340Z,99284.81
2023-06-03T21:42:44.529Z,99285.09
2023-06-03T21:45:13.247Z,99287.91
2023-06-03T21:47:41.971Z,99283.56
2023-06-03T21:50:11.111Z,99283.56
2023-06-03T21:52:39.477Z,99289.06
2023-06-03T21:55:09.097Z,99286.38
2023-06-03T21:57:40.593Z,99295.97
2023-06-03T22:00:14.369Z,99300.78
2023-06-03T22:02:43.108Z,99303.31
2023-06-03T22:05:13.272Z,99292.03
2023-06-03T22:07:41.687Z,99299.59
2023-06-03T22:10:12.343Z,99304.88
2023-06-03T22:12:43.363Z,99296.84
2023-06-03T22:15:13.360Z,99301.44
2023-06-03T22:17:43.250Z,99296.09
2023-06-03T22:20:12.572Z,99305.25
2023-06-03T22:22:44.525Z,99305.34
2023-06-03T22:25:14.721Z,99313.34
2023-06-03T22:27:44.762Z,99310.47
2023-06-03T22:30:13.479Z,99308.19
2023-06-03T22:32:41.996Z,99309.19
2023-06-03T22:35:11.646Z,99306.97
2023-06-03T22:37:40.240Z,99302.06
2023-06-03T22:40:11.286Z,99302.09
2023-06-03T22:42:39.799Z,99308.19
2023-06-03T22:45:10.706Z,99293.47
2023-06-03T22:47:39.050Z,99296.69
2023-06-03T22:50:08.613Z,99294.00
2023-06-03T22:52:36.844Z,99303.16
2023-06-03T22:55:05.578Z,99311.78
2023-06-03T22:57:33.773Z,99311.22
2023-06-03T23:00:02.429Z,99302.44
2023-06-03T23:02:32.841Z,99315.31
2023-06-03T23:05:01.589Z,99317.41
2023-06-03T23:07:30.130Z,99316.72
2023-06-03T23:09:58.505Z,99317.63
2023-06-03T23:12:27.276Z,99319.41
2023-06-03T23:14:56.718Z,99320.94
2023-06-03T23:17:25.219Z,99315.22
2023-06-03T23:19:55.292Z,99317.03
2023-06-03T23:22:23.778Z,99319.53
2023-06-03T23:24:52.086Z,99315.41
2023-06-03T23:27:20.304Z,99316.25
2023-06-03T23:29:48.526Z,99312.03
2023-06-03T23:32:16.772Z,99313.94
2023-06-03T23:34:45.675Z,99313.81
2023-06-03T23:37:15.733Z,99314.19
2023-06-03T23:39:44.239Z,99313.13
2023-06-03T23:42:14.984Z,99305.94
2023-06-03T23:44:43.441Z,99306.84
2023-06-03T23:47:13.097Z,99307.28
2023-06-03T23:49:44.572Z,99307.22
2023-06-03T23:52:14.900Z,99303.25
2023-06-03T23:54:43.357Z,99301.69
2023-06-03T23:57:11.637Z,99304.81
2023-06-03T23:59:42.616Z,99294.91
